createdAt,value
2022-11-15T00:01:15.294Z,4.05
2022-11-15T00:03:42.949Z,1.63
2022-11-15T00:06:10.779Z,1.23
2022-11-15T00:08:38.587Z,1.80
2022-11-15T00:11:06.323Z,3.05
2022-11-15T00:13:34.579Z,3.65
2022-11-15T00:16:03.199Z,1.85
2022-11-15T00:18:31.377Z,4.10
2022-11-15T00:21:06.422Z,3.60
2022-11-15T00:23:34.803Z,2.65
2022-11-15T00:26:02.615Z,4.40
2022-11-15T00:28:30.632Z,2.55
2022-11-15T00:31:03.204Z,2.83
2022-11-15T00:33:33.966Z,3.70
2022-11-15T00:36:03.847Z,4.28
2022-11-15T00:38:33.776Z,1.42
2022-11-15T00:41:06.396Z,2.67
2022-11-15T00:43:37.186Z,4.60
2022-11-15T00:46:04.996Z,2.72
2022-11-15T00:48:32.857Z,3.20
2022-11-15T00:51:00.675Z,1.83
2022-11-15T00:53:28.695Z,4.47
2022-11-15T00:55:56.656Z,2.20
2022-11-15T00:58:24.380Z,2.88
2022-11-15T01:00:52.110Z,4.30
2022-11-15T01:03:19.830Z,3.05
2022-11-15T01:05:47.592Z,3.38
2022-11-15T01:08:19.632Z,4.25
2022-11-15T01:10:47.684Z,3.47
2022-11-15T01:13:15.420Z,4.82
2022-11-15T01:15:43.596Z,3.72
2022-11-15T01:18:11.591Z,2.97
2022-11-15T01:20:46.114Z,2.67
2022-11-15T01:23:13.828Z,4.22
2022-11-15T01:25:41.561Z,5.43
2022-11-15T01:28:09.212Z,3.53
2022-11-15T01:30:37.884Z,2.55
2022-11-15T01:33:05.625Z,5.32
2022-11-15T01:35:33.406Z,3.05
2022-11-15T01:38:00.787Z,5.78
2022-11-15T01:40:28.535Z,3.80
2022-11-15T01:42:56.288Z,4.30
2022-11-15T01:45:24.140Z,3.85
2022-11-15T01:47:54.972Z,3.38
2022-11-15T01:50:29.009Z,3.13
2022-11-15T01:52:56.880Z,4.15
2022-11-15T01:55:28.094Z,4.50
2022-11-15T01:58:00.873Z,6.18
2022-11-15T02:00:29.319Z,7.03
2022-11-15T02:02:57.272Z,4.20
2022-11-15T02:05:25.158Z,4.93
2022-11-15T02:07:55.896Z,3.67
2022-11-15T02:10:25.260Z,5.65
2022-11-15T02:12:54.554Z,2.88
2022-11-15T02:15:22.657Z,3.35
2022-11-15T02:18:12.802Z,2.60
2022-11-15T02:20:53.823Z,5.53
2022-11-15T02:23:54.901Z,5.78
2022-11-15T02:26:50.095Z,3.75
2022-11-15T02:29:44.324Z,4.43
2022-11-15T02:32:31.764Z,4.07
2022-11-15T02:35:13.272Z,3.50
2022-11-15T02:38:01.115Z,7.22
2022-11-15T02:40:42.924Z,7.00
2022-11-15T02:43:28.698Z,3.65
2022-11-15T02:46:04.318Z,4.50
2022-11-15T02:48:35.590Z,7.30
2022-11-15T02:51:03.588Z,5.68
2022-11-15T02:53:31.615Z,4.95
2022-11-15T02:55:59.688Z,3.33
2022-11-15T02:58:50.052Z,6.20
2022-11-15T03:01:37.333Z,3.55
2022-11-15T03:04:25.359Z,4.50
2022-11-15T03:07:18.904Z,6.20
2022-11-15T03:12:43.019Z,3.13
2022-11-15T03:15:20.139Z,3.30
2022-11-15T03:17:55.919Z,3.75
2022-11-15T03:20:26.328Z,2.92
2022-11-15T03:22:57.139Z,10.20
2022-11-15T03:25:28.132Z,3.67
2022-11-15T03:28:00.252Z,2.15
2022-11-15T03:30:28.541Z,3.40
2022-11-15T03:32:59.026Z,3.50
2022-11-15T03:35:30.575Z,2.13
2022-11-15T03:38:20.889Z,3.83
2022-11-15T03:41:01.702Z,4.25
2022-11-15T03:43:42.421Z,6.18
2022-11-15T03:46:17.519Z,3.85
2022-11-15T03:48:50.732Z,3.60
2022-11-15T03:51:18.630Z,5.07
2022-11-15T03:53:47.209Z,3.47
2022-11-15T03:56:15.081Z,2.80
2022-11-15T03:58:43.168Z,4.65
2022-11-15T04:01:11.542Z,4.05
2022-11-15T04:03:39.466Z,6.35
2022-11-15T04:06:07.749Z,4.18
2022-11-15T04:08:35.441Z,5.65
2022-11-15T04:11:03.470Z,3.58
2022-11-15T04:13:31.813Z,7.45
2022-11-15T04:15:59.848Z,4.40
2022-11-15T04:18:27.768Z,8.48
2022-11-15T04:21:10.992Z,3.90
2022-11-15T04:26:24.219Z,2.40
2022-11-15T04:29:11.783Z,5.90
2022-11-15T04:31:39.366Z,3.38
2022-11-15T04:34:07.023Z,4.72
2022-11-15T04:36:50.309Z,6.70
2022-11-15T04:41:45.371Z,3.92
2022-11-15T04:44:13.221Z,4.25
2022-11-15T04:46:41.100Z,4.18
2022-11-15T04:49:08.924Z,6.05
2022-11-15T04:51:36.743Z,2.78
2022-11-15T04:54:04.901Z,5.00
2022-11-15T04:56:32.699Z,4.40
2022-11-15T04:59:00.348Z,7.25
2022-11-15T05:01:28.417Z,3.50
2022-11-15T05:04:11.563Z,9.13
2022-11-15T05:09:06.560Z,4.15
2022-11-15T05:11:34.563Z,5.60
2022-11-15T05:14:02.584Z,7.63
2022-11-15T05:16:30.485Z,2.67
2022-11-15T05:18:58.218Z,2.65
2022-11-15T05:21:26.017Z,9.13
2022-11-15T05:23:53.730Z,8.93
2022-11-15T05:26:21.564Z,6.05
2022-11-15T05:28:55.340Z,7.13
2022-11-15T05:31:23.219Z,5.28
2022-11-15T05:33:52.823Z,5.90
2022-11-15T05:36:32.564Z,7.43
2022-11-15T05:39:00.477Z,6.60
2022-11-15T05:41:34.630Z,3.65
2022-11-15T05:44:04.023Z,7.80
2022-11-15T05:46:31.943Z,5.55
2022-11-15T05:49:00.050Z,8.85
2022-11-15T05:51:30.435Z,6.78
2022-11-15T05:54:00.055Z,7.25
2022-11-15T05:56:28.185Z,3.25
2022-11-15T05:58:59.706Z,6.97
2022-11-15T06:01:28.756Z,4.75
2022-11-15T06:03:57.140Z,5.00
2022-11-15T06:06:25.440Z,5.47
2022-11-15T06:08:54.128Z,5.45
2022-11-15T06:11:22.285Z,5.70
2022-11-15T06:13:50.743Z,5.88
2022-11-15T06:16:20.549Z,6.13
2022-11-15T06:18:48.976Z,10.50
2022-11-15T06:21:18.696Z,3.67
2022-11-15T06:23:48.418Z,4.60
2022-11-15T06:26:16.568Z,8.05
2022-11-15T06:28:44.284Z,7.25
2022-11-15T06:31:15.442Z,5.60
2022-11-15T06:33:43.383Z,9.00
2022-11-15T06:36:18.088Z,8.90
2022-11-15T06:38:46.712Z,8.27
2022-11-15T06:41:16.401Z,10.18
2022-11-15T06:43:44.993Z,10.13
2022-11-15T06:46:15.566Z,8.93
2022-11-15T06:48:43.355Z,6.55
2022-11-15T06:51:11.154Z,8.90
2022-11-15T06:53:39.020Z,12.05
2022-11-15T06:56:08.461Z,11.45
2022-11-15T06:58:36.521Z,5.88
2022-11-15T07:01:13.261Z,4.00
2022-11-15T07:03:42.583Z,9.23
2022-11-15T07:06:11.388Z,6.60
2022-11-15T07:08:39.487Z,6.63
2022-11-15T07:11:08.569Z,7.95
2022-11-15T07:13:38.379Z,4.57
2022-11-15T07:16:08.006Z,5.10
2022-11-15T07:18:37.177Z,9.98
2022-11-15T07:21:06.853Z,4.97
2022-11-15T07:23:34.905Z,4.40
2022-11-15T07:26:02.847Z,3.90
2022-11-15T07:28:30.835Z,7.38
2022-11-15T07:30:58.826Z,7.90
2022-11-15T07:33:26.604Z,9.40
2022-11-15T07:35:54.522Z,5.13
2022-11-15T07:38:22.284Z,4.93
2022-11-15T07:40:58.762Z,7.22
2022-11-15T07:43:29.220Z,5.78
2022-11-15T07:45:59.400Z,3.22
2022-11-15T07:48:42.347Z,5.85
2022-11-15T07:51:14.750Z,6.07
2022-11-15T07:53:45.500Z,7.47
2022-11-15T07:56:13.615Z,7.95
2022-11-15T07:58:41.165Z,9.30
2022-11-15T08:01:10.863Z,9.88
2022-11-15T08:03:39.042Z,8.13
2022-11-15T08:06:06.954Z,5.47
2022-11-15T08:08:34.719Z,6.05
2022-11-15T08:11:02.587Z,8.25
2022-11-15T08:13:30.672Z,5.82
2022-11-15T08:16:00.772Z,5.90
2022-11-15T08:18:28.721Z,5.07
2022-11-15T08:21:01.422Z,5.82
2022-11-15T08:23:29.545Z,8.25
2022-11-15T08:26:02.345Z,6.20
2022-11-15T08:28:30.426Z,7.78
2022-11-15T08:30:58.161Z,5.45
2022-11-15T08:33:25.984Z,7.70
2022-11-15T08:35:53.692Z,11.43
2022-11-15T08:38:21.460Z,9.77
2022-11-15T08:40:49.274Z,6.10
2022-11-15T08:43:16.932Z,9.88
2022-11-15T08:45:44.837Z,8.05
2022-11-15T08:48:12.706Z,6.63
2022-11-15T08:50:40.649Z,6.68
2022-11-15T08:53:09.691Z,6.10
2022-11-15T08:55:40.157Z,5.03
2022-11-15T08:58:08.296Z,3.08
2022-11-15T09:00:35.984Z,4.70
2022-11-15T09:03:06.456Z,10.13
2022-11-15T09:05:34.563Z,5.53
2022-11-15T09:08:13.861Z,6.80
2022-11-15T09:10:50.232Z,17.98
2022-11-15T09:13:18.146Z,10.15
2022-11-15T09:15:45.863Z,6.60
2022-11-15T09:18:13.659Z,3.72
2022-11-15T09:20:41.826Z,6.47
2022-11-15T09:23:09.807Z,4.50
2022-11-15T09:25:37.504Z,7.63
2022-11-15T09:28:08.691Z,6.70
2022-11-15T09:30:37.796Z,5.40
2022-11-15T09:33:10.136Z,5.82
2022-11-15T09:35:37.895Z,7.20
2022-11-15T09:38:05.793Z,10.20
2022-11-15T09:40:36.973Z,5.55
2022-11-15T09:43:25.300Z,5.93
2022-11-15T09:46:07.769Z,9.07
2022-11-15T09:48:57.241Z,9.30
2022-11-15T09:51:35.902Z,7.47
2022-11-15T09:54:51.798Z,6.13
2022-11-15T09:57:17.361Z,9.70
2022-11-15T10:00:38.701Z,7.00
2022-11-15T10:03:14.703Z,5.28
2022-11-15T10:05:47.383Z,4.65
2022-11-15T10:08:45.509Z,4.30
2022-11-15T10:14:15.064Z,10.00
2022-11-15T10:17:10.988Z,11.63
2022-11-15T10:20:05.038Z,8.25
2022-11-15T10:22:45.686Z,7.75
2022-11-15T10:25:19.716Z,6.43
2022-11-15T10:28:07.808Z,8.13
2022-11-15T10:30:41.955Z,8.98
2022-11-15T10:33:28.301Z,6.75
2022-11-15T10:36:17.245Z,7.20
2022-11-15T10:38:56.522Z,7.55
2022-11-15T10:41:37.173Z,7.47
2022-11-15T10:44:22.999Z,7.10
2022-11-15T10:47:07.934Z,4.07
2022-11-15T10:49:36.920Z,8.20
2022-11-15T10:52:20.601Z,9.55
2022-11-15T10:54:54.519Z,5.00
2022-11-15T10:57:26.476Z,5.55
2022-11-15T10:59:57.955Z,6.07
2022-11-15T11:02:33.875Z,4.30
2022-11-15T11:05:02.087Z,5.97
2022-11-15T11:07:33.817Z,9.90
2022-11-15T11:10:22.871Z,12.88
2022-11-15T11:12:55.106Z,14.32
2022-11-15T11:15:29.356Z,14.00
2022-11-15T11:18:16.639Z,10.05
2022-11-15T11:20:51.803Z,13.50
2022-11-15T11:23:52.618Z,5.95
2022-11-15T11:26:40.497Z,9.52
2022-11-15T11:29:38.882Z,10.70
2022-11-15T11:32:35.795Z,7.13
2022-11-15T11:35:16.310Z,7.60
2022-11-15T11:37:54.346Z,6.63
2022-11-15T11:40:38.304Z,7.55
2022-11-15T11:43:30.149Z,26.80
2022-11-15T11:46:28.361Z,14.43
2022-11-15T11:49:09.425Z,10.25
2022-11-15T11:52:02.463Z,13.93
2022-11-15T11:54:50.679Z,9.00
2022-11-15T11:57:34.746Z,16.25
2022-11-15T12:00:15.750Z,7.80
2022-11-15T12:02:51.715Z,22.80
2022-11-15T12:05:32.326Z,16.00
2022-11-15T12:08:21.632Z,8.57
2022-11-15T12:11:08.294Z,20.52
2022-11-15T12:13:37.875Z,16.58
2022-11-15T12:16:25.224Z,10.98
2022-11-15T12:18:56.022Z,14.43
2022-11-15T12:21:44.985Z,10.15
2022-11-15T12:24:20.975Z,9.30
2022-11-15T12:27:12.858Z,8.68
2022-11-15T12:29:49.035Z,13.77
2022-11-15T12:32:38.142Z,6.25
2022-11-15T12:35:22.667Z,14.43
2022-11-15T12:37:52.405Z,8.55
2022-11-15T12:40:25.551Z,20.02
2022-11-15T12:43:04.559Z,6.30
2022-11-15T12:45:37.843Z,11.80
2022-11-15T12:48:40.758Z,15.98
2022-11-15T12:51:08.590Z,16.45
2022-11-15T12:53:37.053Z,13.07
2022-11-15T12:56:21.936Z,9.20
2022-11-15T12:58:53.350Z,10.10
2022-11-15T13:01:55.265Z,7.70
2022-11-15T13:04:27.453Z,9.27
2022-11-15T13:07:02.085Z,13.68
2022-11-15T13:09:52.396Z,11.63
2022-11-15T13:12:57.383Z,9.65
2022-11-15T13:15:58.428Z,12.65
2022-11-15T13:18:38.194Z,8.63
2022-11-15T13:21:35.108Z,10.98
2022-11-15T13:24:03.067Z,12.32
2022-11-15T13:26:30.924Z,12.05
2022-11-15T13:29:00.086Z,12.00
2022-11-15T13:31:35.698Z,11.10
2022-11-15T13:34:44.206Z,12.35
2022-11-15T13:37:31.059Z,11.40
2022-11-15T13:40:18.924Z,9.07
2022-11-15T13:42:46.708Z,7.10
2022-11-15T13:45:17.653Z,9.57
2022-11-15T13:47:45.653Z,13.30
2022-11-15T13:50:15.007Z,11.63
2022-11-15T13:52:47.731Z,10.38
2022-11-15T13:55:20.031Z,10.38
2022-11-15T13:57:52.539Z,9.20
2022-11-15T14:00:33.948Z,9.43
2022-11-15T14:03:19.352Z,11.45
2022-11-15T14:06:13.268Z,8.20
2022-11-15T14:08:43.339Z,8.40
2022-11-15T14:11:16.412Z,7.47
2022-11-15T14:16:38.485Z,6.93
2022-11-15T14:19:09.071Z,6.95
2022-11-15T14:21:38.928Z,9.55
2022-11-15T14:24:26.013Z,6.72
2022-11-15T14:26:56.713Z,9.90
2022-11-15T14:29:32.521Z,11.40
2022-11-15T14:32:17.448Z,10.48
2022-11-15T14:34:48.805Z,8.45
2022-11-15T14:37:28.799Z,8.55
2022-11-15T14:39:58.757Z,7.80
2022-11-15T14:42:28.121Z,11.55
2022-11-15T14:44:58.213Z,9.40
2022-11-15T14:47:29.053Z,10.30
2022-11-15T14:49:58.003Z,8.93
2022-11-15T14:52:32.969Z,13.02
2022-11-15T14:55:05.297Z,11.18
2022-11-15T14:57:34.839Z,13.05
2022-11-15T15:00:05.554Z,16.48
2022-11-15T15:02:34.568Z,14.32
2022-11-15T15:05:12.577Z,11.68
2022-11-15T15:07:40.908Z,11.02
2022-11-15T15:10:38.508Z,12.68
2022-11-15T15:13:01.022Z,9.82
2022-11-15T15:15:36.351Z,13.10
2022-11-15T15:18:06.632Z,13.35
2022-11-15T15:20:36.562Z,13.85
2022-11-15T15:23:06.714Z,10.13
2022-11-15T15:25:37.896Z,11.20
2022-11-15T15:28:06.755Z,9.63
2022-11-15T15:30:34.590Z,10.35
2022-11-15T15:33:02.518Z,9.93
2022-11-15T15:35:33.607Z,7.30
2022-11-15T15:38:01.579Z,6.28
2022-11-15T15:40:31.935Z,8.45
2022-11-15T15:43:00.018Z,9.95
2022-11-15T15:45:28.980Z,9.05
2022-11-15T15:47:57.074Z,7.68
2022-11-15T15:50:27.950Z,10.02
2022-11-15T15:52:57.658Z,12.57
2022-11-15T15:55:25.841Z,8.25
2022-11-15T15:57:53.714Z,9.60
2022-11-15T16:00:22.450Z,8.02
2022-11-15T16:02:50.186Z,7.75
2022-11-15T16:05:18.740Z,8.18
2022-11-15T16:07:47.627Z,7.60
2022-11-15T16:10:25.072Z,8.45
2022-11-15T16:12:57.305Z,7.15
2022-11-15T16:15:32.387Z,8.40
2022-11-15T16:18:03.348Z,7.10
2022-11-15T16:20:45.422Z,6.63
2022-11-15T16:23:16.301Z,9.00
2022-11-15T16:25:51.137Z,5.03
2022-11-15T16:28:25.992Z,9.70
2022-11-15T16:31:15.641Z,11.25
2022-11-15T16:33:44.183Z,6.53
2022-11-15T16:36:29.492Z,7.97
2022-11-15T16:38:58.690Z,7.85
2022-11-15T16:41:27.195Z,7.28
2022-11-15T16:43:54.757Z,9.95
2022-11-15T16:46:25.502Z,10.43
2022-11-15T16:48:54.598Z,9.77
2022-11-15T16:51:23.680Z,6.57
2022-11-15T16:53:51.743Z,5.95
2022-11-15T16:56:26.171Z,7.53
2022-11-15T16:58:58.855Z,8.70
2022-11-15T17:01:29.867Z,7.57
2022-11-15T17:03:58.169Z,7.40
2022-11-15T17:06:27.292Z,10.80
2022-11-15T17:08:56.968Z,12.50
2022-11-15T17:11:26.549Z,7.95
2022-11-15T17:13:59.871Z,9.38
2022-11-15T17:16:28.827Z,8.70
2022-11-15T17:18:56.860Z,8.75
2022-11-15T17:21:31.125Z,9.95
2022-11-15T17:24:01.204Z,12.02
2022-11-15T17:26:34.021Z,11.82
2022-11-15T17:29:07.859Z,10.05
2022-11-15T17:31:37.272Z,11.40
2022-11-15T17:34:09.204Z,8.15
2022-11-15T17:36:37.117Z,8.13
2022-11-15T17:39:08.468Z,8.60
2022-11-15T17:41:37.461Z,10.00
2022-11-15T17:44:05.398Z,11.18
2022-11-15T17:46:34.458Z,10.48
2022-11-15T17:49:02.419Z,12.73
2022-11-15T17:51:30.608Z,11.45
2022-11-15T17:53:59.286Z,11.75
2022-11-15T17:56:28.791Z,8.80
2022-11-15T17:58:58.680Z,10.40
2022-11-15T18:01:29.402Z,13.60
2022-11-15T18:04:00.860Z,9.85
2022-11-15T18:06:31.767Z,15.63
2022-11-15T18:09:00.379Z,9.77
2022-11-15T18:11:35.346Z,12.73
2022-11-15T18:14:05.172Z,14.93
2022-11-15T18:16:35.938Z,10.15
2022-11-15T18:19:10.224Z,12.85
2022-11-15T18:21:56.887Z,11.95
2022-11-15T18:24:29.657Z,11.77
2022-11-15T18:26:58.895Z,12.32
2022-11-15T18:29:30.181Z,13.20
2022-11-15T18:32:01.421Z,11.15
2022-11-15T18:34:32.702Z,12.35
2022-11-15T18:37:03.947Z,12.73
2022-11-15T18:39:33.369Z,10.63
2022-11-15T18:42:04.941Z,10.35
2022-11-15T18:44:33.443Z,8.80
2022-11-15T18:47:01.412Z,13.02
2022-11-15T18:49:29.512Z,10.05
2022-11-15T18:51:58.153Z,12.15
2022-11-15T18:54:30.982Z,8.88
2022-11-15T18:56:59.579Z,10.38
2022-11-15T18:59:28.105Z,12.32
2022-11-15T19:01:57.062Z,10.50
2022-11-15T19:04:25.100Z,11.38
2022-11-15T19:06:53.912Z,9.90
2022-11-15T19:09:21.958Z,8.10
2022-11-15T19:11:51.843Z,10.38
2022-11-15T19:14:24.399Z,12.57
2022-11-15T19:16:52.760Z,8.55
2022-11-15T19:19:24.689Z,11.30
2022-11-15T19:21:53.176Z,9.10
2022-11-15T19:24:21.319Z,10.75
2022-11-15T19:26:49.639Z,13.25
2022-11-15T19:29:18.901Z,11.98
2022-11-15T19:31:49.018Z,11.30
2022-11-15T19:34:18.111Z,11.40
2022-11-15T19:36:46.536Z,11.52
2022-11-15T19:39:15.526Z,11.07
2022-11-15T19:41:44.424Z,8.75
2022-11-15T19:44:13.006Z,10.45
2022-11-15T19:46:41.464Z,11.00
2022-11-15T19:49:11.427Z,12.90
2022-11-15T19:51:39.830Z,10.02
2022-11-15T19:54:09.105Z,15.48
2022-11-15T19:56:37.643Z,11.98
2022-11-15T19:59:06.034Z,13.48
2022-11-15T20:01:39.038Z,11.85
2022-11-15T20:04:08.421Z,17.50
2022-11-15T20:06:40.404Z,12.23
2022-11-15T20:09:11.592Z,14.20
2022-11-15T20:11:39.539Z,19.83
2022-11-15T20:14:09.659Z,17.75
2022-11-15T20:16:37.860Z,18.75
2022-11-15T20:19:05.839Z,23.75
2022-11-15T20:21:33.787Z,27.80
2022-11-15T20:24:01.579Z,31.33
2022-11-15T20:26:32.250Z,27.10
2022-11-15T20:29:02.296Z,30.40
2022-11-15T20:31:31.038Z,31.10
2022-11-15T20:33:59.590Z,31.45
2022-11-15T20:36:27.955Z,30.77
2022-11-15T20:39:00.069Z,37.65
2022-11-15T20:41:28.543Z,38.72
2022-11-15T20:43:57.885Z,34.58
2022-11-15T20:46:27.252Z,34.25
2022-11-15T20:48:55.801Z,40.38
2022-11-15T20:51:23.966Z,43.55
2022-11-15T20:53:51.769Z,38.28
2022-11-15T20:56:21.909Z,39.42
2022-11-15T20:58:50.852Z,37.78
2022-11-15T21:01:25.154Z,35.78
2022-11-15T21:03:54.586Z,41.50
2022-11-15T21:06:23.667Z,39.22
2022-11-15T21:09:07.105Z,36.78
2022-11-15T21:11:50.428Z,34.78
2022-11-15T21:14:18.599Z,35.00
2022-11-15T21:16:46.565Z,36.40
2022-11-15T21:19:14.341Z,35.25
2022-11-15T21:21:42.810Z,36.75
2022-11-15T21:24:12.070Z,31.90
2022-11-15T21:26:40.330Z,29.02
2022-11-15T21:29:11.335Z,29.48
2022-11-15T21:31:39.591Z,35.80
2022-11-15T21:34:07.482Z,29.58
2022-11-15T21:36:35.458Z,30.05
2022-11-15T21:39:06.581Z,27.65
2022-11-15T21:41:34.524Z,28.80
2022-11-15T21:44:03.217Z,26.75
2022-11-15T21:46:32.004Z,26.35
2022-11-15T21:48:59.812Z,25.15
2022-11-15T21:51:27.676Z,22.08
2022-11-15T21:53:56.516Z,21.35
2022-11-15T21:56:25.914Z,21.52
2022-11-15T21:58:54.525Z,17.83
2022-11-15T22:01:39.626Z,20.58
2022-11-15T22:04:07.845Z,19.63
2022-11-15T22:06:36.216Z,18.50
2022-11-15T22:09:05.258Z,16.23
2022-11-15T22:11:33.306Z,17.45
2022-11-15T22:14:01.357Z,18.33
2022-11-15T22:16:29.413Z,15.70
2022-11-15T22:18:57.614Z,15.98
2022-11-15T22:21:25.543Z,19.17
2022-11-15T22:23:53.448Z,17.27
2022-11-15T22:26:23.836Z,17.00
2022-11-15T22:28:52.254Z,15.95
2022-11-15T22:31:19.998Z,18.23
2022-11-15T22:33:47.943Z,16.80
2022-11-15T22:36:15.867Z,14.77
2022-11-15T22:38:43.870Z,14.88
2022-11-15T22:41:12.778Z,14.25
2022-11-15T22:43:41.168Z,16.88
2022-11-15T22:46:09.220Z,15.82
2022-11-15T22:48:38.975Z,14.77
2022-11-15T22:51:07.440Z,14.15
2022-11-15T22:53:35.309Z,15.88
2022-11-15T22:56:05.779Z,14.68
2022-11-15T22:58:34.255Z,18.20
2022-11-15T23:01:04.056Z,17.73
2022-11-15T23:03:33.500Z,17.85
2022-11-15T23:06:06.500Z,17.52
2022-11-15T23:08:34.523Z,23.58
2022-11-15T23:11:19.353Z,19.20
2022-11-15T23:13:47.619Z,19.13
2022-11-15T23:16:22.804Z,17.10
2022-11-15T23:18:54.826Z,21.42
2022-11-15T23:21:44.050Z,15.90
2022-11-15T23:24:21.717Z,17.05
2022-11-15T23:26:56.016Z,18.58
2022-11-15T23:29:29.189Z,19.05
2022-11-15T23:32:12.769Z,19.83
2022-11-15T23:34:46.725Z,20.90
2022-11-15T23:37:17.482Z,19.40
2022-11-15T23:39:49.486Z,20.52
2022-11-15T23:42:20.348Z,19.00
2022-11-15T23:44:50.743Z,22.05
2022-11-15T23:47:19.691Z,20.95
2022-11-15T23:49:47.598Z,19.85
2022-11-15T23:52:16.479Z,17.98
2022-11-15T23:54:44.454Z,16.52
2022-11-15T23:57:12.656Z,15.60
2022-11-15T23:59:43.653Z,16.65
